sensor_id;sensor_type;location;lat;lon;timestamp;pressure;altitude;pressure_sealevel;temperature;humidity
53940;BME280;39850;43.324;21.916;2023-12-29T00:12:26;999.0;;;5.5;71.0
53940;BME280;39850;43.324;21.916;2023-12-29T00:17:04;999.0;;;5.5;71.0
53940;BME280;39850;43.324;21.916;2023-12-29T00:21:40;999.0;;;5.5;71.0
53940;BME280;39850;43.324;21.916;2023-12-29T00:26:18;999.0;;;6.0;71.0
53940;BME280;39850;43.324;21.916;2023-12-29T00:30:54;999.0;;;6.0;71.0
53940;BME280;39850;43.324;21.916;2023-12-29T00:35:30;999.0;;;6.3;71.0
53940;BME280;39850;43.324;21.916;2023-12-29T00:40:11;999.0;;;6.3;71.0
53940;BME280;39850;43.324;21.916;2023-12-29T00:44:47;999.0;;;6.4;70.0
53940;BME280;39850;43.324;21.916;2023-12-29T00:49:24;999.0;;;6.4;70.0
53940;BME280;39850;43.324;21.916;2023-12-29T00:54:00;999.0;;;6.3;69.0
53940;BME280;39850;43.324;21.916;2023-12-29T00:58:37;999.0;;;6.3;69.0
53940;BME280;39850;43.324;21.916;2023-12-29T01:35:27;999.0;;;5.5;74.0
53940;BME280;39850;43.324;21.916;2023-12-29T01:40:08;999.0;;;5.5;74.0
53940;BME280;39850;43.324;21.916;2023-12-29T01:44:45;999.0;;;5.0;74.0
53940;BME280;39850;43.324;21.916;2023-12-29T01:49:23;999.0;;;5.0;74.0
53940;BME280;39850;43.324;21.916;2023-12-29T01:54:01;999.0;;;5.2;74.0
53940;BME280;39850;43.324;21.916;2023-12-29T01:58:38;999.0;;;5.2;74.0
53940;BME280;39850;43.324;21.916;2023-12-29T02:03:15;999.0;;;4.8;74.0
53940;BME280;39850;43.324;21.916;2023-12-29T02:07:53;999.0;;;4.8;74.0
53940;BME280;39850;43.324;21.916;2023-12-29T02:12:31;999.0;;;5.2;74.0
53940;BME280;39850;43.324;21.916;2023-12-29T02:17:34;999.0;;;5.2;74.0
53940;BME280;39850;43.324;21.916;2023-12-29T02:22:14;999.0;;;5.2;74.0
53940;BME280;39850;43.324;21.916;2023-12-29T02:55:36;999.0;;;4.4;76.0
53940;BME280;39850;43.324;21.916;2023-12-29T03:00:15;999.0;;;4.4;76.0
53940;BME280;39850;43.324;21.916;2023-12-29T03:04:52;999.0;;;4.4;75.0
53940;BME280;39850;43.324;21.916;2023-12-29T03:09:28;999.0;;;4.4;75.0
53940;BME280;39850;43.324;21.916;2023-12-29T03:14:04;999.0;;;4.4;75.0
53940;BME280;39850;43.324;21.916;2023-12-29T03:18:41;999.0;;;4.4;75.0
53940;BME280;39850;43.324;21.916;2023-12-29T03:23:17;998.0;;;4.4;74.0
53940;BME280;39850;43.324;21.916;2023-12-29T03:27:53;998.0;;;4.4;74.0
53940;BME280;39850;43.324;21.916;2023-12-29T03:32:30;998.0;;;4.4;74.0
53940;BME280;39850;43.324;21.916;2023-12-29T03:37:06;998.0;;;4.4;73.0
53940;BME280;39850;43.324;21.916;2023-12-29T03:41:42;998.0;;;4.4;73.0
53940;BME280;39850;43.324;21.916;2023-12-29T04:14:03;998.0;;;4.5;75.0
53940;BME280;39850;43.324;21.916;2023-12-29T04:18:39;998.0;;;4.5;75.0
53940;BME280;39850;43.324;21.916;2023-12-29T04:23:16;998.0;;;4.4;75.0
53940;BME280;39850;43.324;21.916;2023-12-29T04:27:53;998.0;;;4.4;75.0
53940;BME280;39850;43.324;21.916;2023-12-29T04:32:29;998.0;;;4.4;75.0
53940;BME280;39850;43.324;21.916;2023-12-29T04:37:05;998.0;;;4.4;75.0
53940;BME280;39850;43.324;21.916;2023-12-29T04:41:42;998.0;;;4.4;75.0
53940;BME280;39850;43.324;21.916;2023-12-29T04:46:18;998.0;;;4.4;75.0
53940;BME280;39850;43.324;21.916;2023-12-29T04:50:54;998.0;;;4.4;75.0
53940;BME280;39850;43.324;21.916;2023-12-29T04:55:31;998.0;;;4.4;75.0
53940;BME280;39850;43.324;21.916;2023-12-29T05:00:12;998.0;;;4.4;75.0
53940;BME280;39850;43.324;21.916;2023-12-29T05:37:02;999.0;;;4.5;77.0
53940;BME280;39850;43.324;21.916;2023-12-29T05:41:38;999.0;;;4.5;77.0
53940;BME280;39850;43.324;21.916;2023-12-29T05:46:15;999.0;;;4.5;77.0
53940;BME280;39850;43.324;21.916;2023-12-29T05:50:53;999.0;;;4.5;77.0
53940;BME280;39850;43.324;21.916;2023-12-29T05:55:30;999.0;;;4.5;76.0
53940;BME280;39850;43.324;21.916;2023-12-29T06:00:12;999.0;;;4.5;76.0
53940;BME280;39850;43.324;21.916;2023-12-29T06:04:49;999.0;;;4.5;75.0
53940;BME280;39850;43.324;21.916;2023-12-29T06:09:25;999.0;;;4.5;75.0
53940;BME280;39850;43.324;21.916;2023-12-29T06:14:03;999.0;;;4.5;74.0
53940;BME280;39850;43.324;21.916;2023-12-29T06:18:39;999.0;;;4.5;74.0
53940;BME280;39850;43.324;21.916;2023-12-29T06:55:33;999.0;;;4.5;75.0
53940;BME280;39850;43.324;21.916;2023-12-29T07:00:13;999.0;;;4.5;75.0
53940;BME280;39850;43.324;21.916;2023-12-29T07:04:49;999.0;;;4.0;76.0
53940;BME280;39850;43.324;21.916;2023-12-29T07:09:26;999.0;;;4.0;76.0
53940;BME280;39850;43.324;21.916;2023-12-29T07:14:03;999.0;;;3.6;77.0
53940;BME280;39850;43.324;21.916;2023-12-29T07:18:39;999.0;;;3.6;77.0
53940;BME280;39850;43.324;21.916;2023-12-29T07:23:16;999.0;;;3.6;77.0
53940;BME280;39850;43.324;21.916;2023-12-29T07:27:52;999.0;;;3.6;77.0
53940;BME280;39850;43.324;21.916;2023-12-29T07:32:29;999.0;;;3.6;77.0
53940;BME280;39850;43.324;21.916;2023-12-29T07:37:05;999.0;;;3.6;78.0
53940;BME280;39850;43.324;21.916;2023-12-29T07:41:43;999.0;;;3.6;78.0
53940;BME280;39850;43.324;21.916;2023-12-29T08:14:09;999.0;;;4.5;76.0
53940;BME280;39850;43.324;21.916;2023-12-29T08:18:49;999.0;;;4.5;76.0
53940;BME280;39850;43.324;21.916;2023-12-29T08:23:26;999.0;;;4.5;76.0
53940;BME280;39850;43.324;21.916;2023-12-29T08:28:04;999.0;;;4.8;76.0
53940;BME280;39850;43.324;21.916;2023-12-29T08:32:40;999.0;;;4.8;76.0
53940;BME280;39850;43.324;21.916;2023-12-29T08:37:17;999.0;;;5.1;76.0
53940;BME280;39850;43.324;21.916;2023-12-29T08:41:53;999.0;;;5.1;76.0
53940;BME280;39850;43.324;21.916;2023-12-29T08:46:29;999.0;;;5.2;76.0
53940;BME280;39850;43.324;21.916;2023-12-29T08:51:06;999.0;;;5.2;76.0
53940;BME280;39850;43.324;21.916;2023-12-29T08:55:42;999.0;;;5.4;75.0
53940;BME280;39850;43.324;21.916;2023-12-29T09:00:20;999.0;;;5.4;75.0
53940;BME280;39850;43.324;21.916;2023-12-29T09:37:10;999.0;;;9.7;63.0
53940;BME280;39850;43.324;21.916;2023-12-29T09:41:59;999.0;;;9.7;63.0
53940;BME280;39850;43.324;21.916;2023-12-29T09:46:37;999.0;;;9.8;62.0
53940;BME280;39850;43.324;21.916;2023-12-29T09:51:17;999.0;;;9.8;62.0
53940;BME280;39850;43.324;21.916;2023-12-29T09:55:59;999.0;;;9.8;61.0
53940;BME280;39850;43.324;21.916;2023-12-29T10:00:41;999.0;;;9.8;61.0
53940;BME280;39850;43.324;21.916;2023-12-29T10:05:18;999.0;;;9.9;61.0
53940;BME280;39850;43.324;21.916;2023-12-29T10:10:02;999.0;;;9.9;61.0
53940;BME280;39850;43.324;21.916;2023-12-29T10:15:11;999.0;;;9.8;61.0
53940;BME280;39850;43.324;21.916;2023-12-29T10:20:50;999.0;;;9.8;61.0
53940;BME280;39850;43.324;21.916;2023-12-29T10:58:32;998.0;;;11.7;60.0
53940;BME280;39850;43.324;21.916;2023-12-29T11:03:16;998.0;;;11.7;60.0
53940;BME280;39850;43.324;21.916;2023-12-29T11:07:55;998.0;;;11.6;59.0
53940;BME280;39850;43.324;21.916;2023-12-29T11:12:38;998.0;;;11.6;59.0
53940;BME280;39850;43.324;21.916;2023-12-29T11:17:18;998.0;;;11.6;58.0
53940;BME280;39850;43.324;21.916;2023-12-29T11:21:58;998.0;;;11.6;58.0
53940;BME280;39850;43.324;21.916;2023-12-29T11:26:39;998.0;;;11.6;58.0
53940;BME280;39850;43.324;21.916;2023-12-29T11:31:19;998.0;;;11.6;58.0
53940;BME280;39850;43.324;21.916;2023-12-29T11:36:22;998.0;;;11.6;58.0
53940;BME280;39850;43.324;21.916;2023-12-29T11:41:33;998.0;;;11.6;58.0
53940;BME280;39850;43.324;21.916;2023-12-29T12:15:34;997.0;;;12.7;57.0
53940;BME280;39850;43.324;21.916;2023-12-29T12:20:13;997.0;;;12.7;57.0
53940;BME280;39850;43.324;21.916;2023-12-29T12:24:58;997.0;;;12.7;57.0
53940;BME280;39850;43.324;21.916;2023-12-29T12:29:36;997.0;;;12.7;57.0
53940;BME280;39850;43.324;21.916;2023-12-29T12:34:12;997.0;;;12.7;57.0
53940;BME280;39850;43.324;21.916;2023-12-29T12:38:55;997.0;;;12.7;58.0
53940;BME280;39850;43.324;21.916;2023-12-29T12:43:57;997.0;;;12.7;58.0
53940;BME280;39850;43.324;21.916;2023-12-29T12:48:47;997.0;;;12.8;59.0
53940;BME280;39850;43.324;21.916;2023-12-29T12:53:25;997.0;;;12.8;59.0
53940;BME280;39850;43.324;21.916;2023-12-29T12:58:04;997.0;;;12.9;61.0
53940;BME280;39850;43.324;21.916;2023-12-29T13:02:44;997.0;;;12.9;61.0
53940;BME280;39850;43.324;21.916;2023-12-29T13:35:55;997.0;;;12.6;56.0
53940;BME280;39850;43.324;21.916;2023-12-29T13:41:04;997.0;;;12.6;56.0
53940;BME280;39850;43.324;21.916;2023-12-29T13:45:44;997.0;;;12.6;57.0
53940;BME280;39850;43.324;21.916;2023-12-29T13:50:23;997.0;;;12.6;57.0
53940;BME280;39850;43.324;21.916;2023-12-29T13:54:59;997.0;;;12.7;57.0
53940;BME280;39850;43.324;21.916;2023-12-29T13:59:36;997.0;;;12.7;57.0
53940;BME280;39850;43.324;21.916;2023-12-29T14:04:19;997.0;;;12.7;57.0
53940;BME280;39850;43.324;21.916;2023-12-29T14:08:56;997.0;;;12.7;57.0
53940;BME280;39850;43.324;21.916;2023-12-29T14:13:32;997.0;;;12.7;57.0
53940;BME280;39850;43.324;21.916;2023-12-29T14:18:55;997.0;;;12.7;58.0
53940;BME280;39850;43.324;21.916;2023-12-29T14:23:32;997.0;;;12.7;58.0
53940;BME280;39850;43.324;21.916;2023-12-29T14:55:58;997.0;;;11.7;59.0
53940;BME280;39850;43.324;21.916;2023-12-29T15:00:34;997.0;;;11.7;59.0
53940;BME280;39850;43.324;21.916;2023-12-29T15:05:10;997.0;;;11.7;59.0
53940;BME280;39850;43.324;21.916;2023-12-29T15:09:47;997.0;;;11.7;59.0
53940;BME280;39850;43.324;21.916;2023-12-29T15:14:23;997.0;;;11.7;59.0
53940;BME280;39850;43.324;21.916;2023-12-29T15:18:59;997.0;;;11.8;59.0
53940;BME280;39850;43.324;21.916;2023-12-29T15:23:37;997.0;;;11.8;59.0
53940;BME280;39850;43.324;21.916;2023-12-29T15:28:16;997.0;;;11.8;59.0
53940;BME280;39850;43.324;21.916;2023-12-29T15:32:52;997.0;;;11.8;59.0
53940;BME280;39850;43.324;21.916;2023-12-29T15:37:29;997.0;;;11.8;59.0
53940;BME280;39850;43.324;21.916;2023-12-29T15:42:06;997.0;;;11.8;59.0
53940;BME280;39850;43.324;21.916;2023-12-29T16:18:58;997.0;;;9.9;65.0
53940;BME280;39850;43.324;21.916;2023-12-29T16:23:37;997.0;;;9.9;65.0
53940;BME280;39850;43.324;21.916;2023-12-29T16:28:13;997.0;;;10.0;66.0
53940;BME280;39850;43.324;21.916;2023-12-29T16:32:49;997.0;;;10.0;66.0
53940;BME280;39850;43.324;21.916;2023-12-29T16:37:26;997.0;;;9.9;66.0
53940;BME280;39850;43.324;21.916;2023-12-29T16:42:04;997.0;;;9.9;66.0
53940;BME280;39850;43.324;21.916;2023-12-29T16:46:41;997.0;;;9.9;67.0
53940;BME280;39850;43.324;21.916;2023-12-29T16:51:17;997.0;;;9.9;67.0
53940;BME280;39850;43.324;21.916;2023-12-29T16:55:53;997.0;;;9.8;68.0
53940;BME280;39850;43.324;21.916;2023-12-29T17:00:30;997.0;;;9.8;68.0
53940;BME280;39850;43.324;21.916;2023-12-29T17:05:08;997.0;;;9.8;68.0
53940;BME280;39850;43.324;21.916;2023-12-29T17:37:20;997.0;;;9.0;69.0
53940;BME280;39850;43.324;21.916;2023-12-29T17:41:57;997.0;;;9.0;69.0
53940;BME280;39850;43.324;21.916;2023-12-29T17:46:33;997.0;;;8.6;70.0
53940;BME280;39850;43.324;21.916;2023-12-29T17:51:10;997.0;;;8.6;70.0
53940;BME280;39850;43.324;21.916;2023-12-29T17:55:46;997.0;;;8.1;69.0
53940;BME280;39850;43.324;21.916;2023-12-29T18:00:23;997.0;;;8.1;69.0
53940;BME280;39850;43.324;21.916;2023-12-29T18:04:59;997.0;;;8.1;69.0
53940;BME280;39850;43.324;21.916;2023-12-29T18:09:39;997.0;;;8.0;70.0
53940;BME280;39850;43.324;21.916;2023-12-29T18:14:15;997.0;;;8.0;70.0
53940;BME280;39850;43.324;21.916;2023-12-29T18:18:51;997.0;;;8.0;69.0
53940;BME280;39850;43.324;21.916;2023-12-29T18:23:28;997.0;;;8.0;69.0
53940;BME280;39850;43.324;21.916;2023-12-29T19:00:20;997.0;;;7.3;73.0
53940;BME280;39850;43.324;21.916;2023-12-29T19:04:56;997.0;;;7.3;73.0
53940;BME280;39850;43.324;21.916;2023-12-29T19:09:33;997.0;;;7.3;73.0
53940;BME280;39850;43.324;21.916;2023-12-29T19:14:09;997.0;;;7.3;73.0
53940;BME280;39850;43.324;21.916;2023-12-29T19:18:45;997.0;;;7.3;73.0
53940;BME280;39850;43.324;21.916;2023-12-29T19:23:22;997.0;;;7.3;73.0
53940;BME280;39850;43.324;21.916;2023-12-29T19:27:58;998.0;;;7.3;74.0
53940;BME280;39850;43.324;21.916;2023-12-29T19:32:34;998.0;;;7.3;74.0
53940;BME280;39850;43.324;21.916;2023-12-29T19:37:11;998.0;;;7.3;73.0
53940;BME280;39850;43.324;21.916;2023-12-29T19:41:47;998.0;;;7.3;73.0
53940;BME280;39850;43.324;21.916;2023-12-29T20:18:39;998.0;;;6.2;74.0
53940;BME280;39850;43.324;21.916;2023-12-29T20:23:16;998.0;;;6.2;74.0
53940;BME280;39850;43.324;21.916;2023-12-29T20:27:52;998.0;;;6.2;74.0
53940;BME280;39850;43.324;21.916;2023-12-29T20:32:28;998.0;;;6.2;74.0
53940;BME280;39850;43.324;21.916;2023-12-29T20:37:05;998.0;;;6.2;74.0
53940;BME280;39850;43.324;21.916;2023-12-29T20:41:41;998.0;;;6.2;74.0
53940;BME280;39850;43.324;21.916;2023-12-29T20:46:19;998.0;;;5.9;75.0
53940;BME280;39850;43.324;21.916;2023-12-29T20:50:56;998.0;;;5.9;75.0
53940;BME280;39850;43.324;21.916;2023-12-29T20:55:32;998.0;;;5.9;75.0
53940;BME280;39850;43.324;21.916;2023-12-29T21:00:11;998.0;;;5.5;76.0
53940;BME280;39850;43.324;21.916;2023-12-29T21:04:48;998.0;;;5.5;76.0
53940;BME280;39850;43.324;21.916;2023-12-29T21:37:02;997.0;;;6.2;76.0
53940;BME280;39850;43.324;21.916;2023-12-29T21:41:38;997.0;;;6.2;76.0
53940;BME280;39850;43.324;21.916;2023-12-29T21:46:16;997.0;;;6.2;76.0
53940;BME280;39850;43.324;21.916;2023-12-29T21:50:52;997.0;;;5.8;77.0
53940;BME280;39850;43.324;21.916;2023-12-29T21:55:28;997.0;;;5.8;77.0
53940;BME280;39850;43.324;21.916;2023-12-29T22:00:10;997.0;;;5.4;76.0
53940;BME280;39850;43.324;21.916;2023-12-29T22:04:46;997.0;;;5.4;76.0
53940;BME280;39850;43.324;21.916;2023-12-29T22:09:23;997.0;;;5.4;77.0
53940;BME280;39850;43.324;21.916;2023-12-29T22:14:00;997.0;;;5.4;77.0
53940;BME280;39850;43.324;21.916;2023-12-29T22:18:36;997.0;;;5.3;76.0
53940;BME280;39850;43.324;21.916;2023-12-29T22:23:12;997.0;;;5.3;76.0
53940;BME280;39850;43.324;21.916;2023-12-29T23:00:13;997.0;;;5.3;78.0
53940;BME280;39850;43.324;21.916;2023-12-29T23:04:51;997.0;;;5.3;78.0
53940;BME280;39850;43.324;21.916;2023-12-29T23:09:27;997.0;;;5.3;77.0
53940;BME280;39850;43.324;21.916;2023-12-29T23:14:03;997.0;;;5.3;77.0
53940;BME280;39850;43.324;21.916;2023-12-29T23:18:40;997.0;;;5.3;78.0
53940;BME280;39850;43.324;21.916;2023-12-29T23:23:16;997.0;;;5.3;78.0
53940;BME280;39850;43.324;21.916;2023-12-29T23:27:52;997.0;;;5.4;77.0
53940;BME280;39850;43.324;21.916;2023-12-29T23:32:29;997.0;;;5.4;77.0
53940;BME280;39850;43.324;21.916;2023-12-29T23:37:05;997.0;;;5.5;79.0
53940;BME280;39850;43.324;21.916;2023-12-29T23:41:42;997.0;;;5.5;79.0
53940;BME280;39850;43.324;21.916;2023-12-29T23:46:18;997.0;;;5.5;79.0
